sensor_id;sensor_type;location;lat;lon;timestamp;temperature;humidity
45319;DHT22;31057;48.498;32.260;2023-04-01T00:01:27;6.70;99.90
45319;DHT22;31057;48.498;32.260;2023-04-01T00:03:29;6.70;99.90
45319;DHT22;31057;48.498;32.260;2023-04-01T00:05:32;6.70;99.90
45319;DHT22;31057;48.498;32.260;2023-04-01T00:07:35;6.60;99.90
45319;DHT22;31057;48.498;32.260;2023-04-01T00:09:37;6.60;99.90
45319;DHT22;31057;48.498;32.260;2023-04-01T00:11:39;6.60;99.90
45319;DHT22;31057;48.498;32.260;2023-04-01T00:13:42;6.70;99.90
45319;DHT22;31057;48.498;32.260;2023-04-01T00:15:44;6.60;99.90
45319;DHT22;31057;48.498;32.260;2023-04-01T00:17:46;6.70;99.90
45319;DHT22;31057;48.498;32.260;2023-04-01T00:19:48;6.60;99.90
45319;DHT22;31057;48.498;32.260;2023-04-01T00:21:50;6.60;99.90
45319;DHT22;31057;48.498;32.260;2023-04-01T00:23:53;6.70;99.90
45319;DHT22;31057;48.498;32.260;2023-04-01T00:25:55;6.70;99.90
45319;DHT22;31057;48.498;32.260;2023-04-01T00:27:57;6.70;99.90
45319;DHT22;31057;48.498;32.260;2023-04-01T00:29:59;6.70;99.90
45319;DHT22;31057;48.498;32.260;2023-04-01T00:32:01;6.70;99.90
45319;DHT22;31057;48.498;32.260;2023-04-01T00:34:03;6.70;99.90
45319;DHT22;31057;48.498;32.260;2023-04-01T00:38:08;6.70;99.90
45319;DHT22;31057;48.498;32.260;2023-04-01T00:40:33;6.70;99.90
45319;DHT22;31057;48.498;32.260;2023-04-01T00:42:36;6.70;99.90
45319;DHT22;31057;48.498;32.260;2023-04-01T00:44:38;6.70;99.90
45319;DHT22;31057;48.498;32.260;2023-04-01T00:46:40;6.70;99.90
45319;DHT22;31057;48.498;32.260;2023-04-01T00:48:46;6.70;99.90
45319;DHT22;31057;48.498;32.260;2023-04-01T00:50:59;6.70;99.90
45319;DHT22;31057;48.498;32.260;2023-04-01T00:53:03;6.70;99.90
45319;DHT22;31057;48.498;32.260;2023-04-01T00:55:06;6.70;99.90
45319;DHT22;31057;48.498;32.260;2023-04-01T00:57:47;6.70;99.90
45319;DHT22;31057;48.498;32.260;2023-04-01T00:59:44;6.80;99.90
45319;DHT22;31057;48.498;32.260;2023-04-01T01:01:46;6.70;99.90
45319;DHT22;31057;48.498;32.260;2023-04-01T01:03:48;6.80;99.90
45319;DHT22;31057;48.498;32.260;2023-04-01T01:06:10;6.80;99.90
45319;DHT22;31057;48.498;32.260;2023-04-01T01:08:15;6.80;99.90
45319;DHT22;31057;48.498;32.260;2023-04-01T01:10:33;6.80;99.90
45319;DHT22;31057;48.498;32.260;2023-04-01T01:31:07;6.80;99.90
45319;DHT22;31057;48.498;32.260;2023-04-01T01:35:13;6.80;99.90
45319;DHT22;31057;48.498;32.260;2023-04-01T01:37:20;6.80;99.90
45319;DHT22;31057;48.498;32.260;2023-04-01T01:39:26;6.80;99.90
45319;DHT22;31057;48.498;32.260;2023-04-01T01:41:31;6.80;99.90
45319;DHT22;31057;48.498;32.260;2023-04-01T01:43:39;6.80;99.90
45319;DHT22;31057;48.498;32.260;2023-04-01T01:45:46;6.80;99.90
45319;DHT22;31057;48.498;32.260;2023-04-01T01:47:50;6.90;99.90
45319;DHT22;31057;48.498;32.260;2023-04-01T01:49:54;6.80;99.90
45319;DHT22;31057;48.498;32.260;2023-04-01T01:51:57;6.90;99.90
45319;DHT22;31057;48.498;32.260;2023-04-01T01:53:59;6.80;99.90
45319;DHT22;31057;48.498;32.260;2023-04-01T01:56:01;6.80;99.90
45319;DHT22;31057;48.498;32.260;2023-04-01T02:00:13;6.90;99.90
45319;DHT22;31057;48.498;32.260;2023-04-01T02:02:15;6.90;99.90
45319;DHT22;31057;48.498;32.260;2023-04-01T02:04:19;6.90;99.90
45319;DHT22;31057;48.498;32.260;2023-04-01T02:06:23;6.90;99.90
45319;DHT22;31057;48.498;32.260;2023-04-01T02:08:30;7.00;99.90
45319;DHT22;31057;48.498;32.260;2023-04-01T02:10:37;7.00;99.90
45319;DHT22;31057;48.498;32.260;2023-04-01T02:12:44;7.00;99.90
45319;DHT22;31057;48.498;32.260;2023-04-01T02:15:07;7.20;99.90
45319;DHT22;31057;48.498;32.260;2023-04-01T02:17:14;7.40;99.90
45319;DHT22;31057;48.498;32.260;2023-04-01T02:19:18;7.10;99.90
45319;DHT22;31057;48.498;32.260;2023-04-01T02:21:27;7.10;99.90
45319;DHT22;31057;48.498;32.260;2023-04-01T02:23:33;7.10;99.90
45319;DHT22;31057;48.498;32.260;2023-04-01T02:25:37;7.10;99.90
45319;DHT22;31057;48.498;32.260;2023-04-01T02:27:43;7.00;99.90
45319;DHT22;31057;48.498;32.260;2023-04-01T02:29:46;7.00;99.90
45319;DHT22;31057;48.498;32.260;2023-04-01T02:31:49;7.00;99.90
45319;DHT22;31057;48.498;32.260;2023-04-01T02:33:52;7.00;99.90
45319;DHT22;31057;48.498;32.260;2023-04-01T02:35:55;7.00;99.90
45319;DHT22;31057;48.498;32.260;2023-04-01T02:37:57;7.00;99.90
45319;DHT22;31057;48.498;32.260;2023-04-01T02:40:00;7.00;99.90
45319;DHT22;31057;48.498;32.260;2023-04-01T02:42:03;6.90;99.90
45319;DHT22;31057;48.498;32.260;2023-04-01T02:44:05;7.00;99.90
45319;DHT22;31057;48.498;32.260;2023-04-01T02:46:07;7.00;99.90
45319;DHT22;31057;48.498;32.260;2023-04-01T02:48:09;7.00;99.90
45319;DHT22;31057;48.498;32.260;2023-04-01T02:50:12;6.90;99.90
45319;DHT22;31057;48.498;32.260;2023-04-01T02:52:13;7.00;99.90
45319;DHT22;31057;48.498;32.260;2023-04-01T02:54:15;7.00;99.90
45319;DHT22;31057;48.498;32.260;2023-04-01T02:56:17;6.90;99.90
45319;DHT22;31057;48.498;32.260;2023-04-01T02:58:21;7.00;99.90
45319;DHT22;31057;48.498;32.260;2023-04-01T03:00:23;6.90;99.90
45319;DHT22;31057;48.498;32.260;2023-04-01T03:02:24;6.90;99.90
45319;DHT22;31057;48.498;32.260;2023-04-01T03:04:27;6.90;99.90
45319;DHT22;31057;48.498;32.260;2023-04-01T03:06:29;6.90;99.90
45319;DHT22;31057;48.498;32.260;2023-04-01T03:08:31;7.00;99.90
45319;DHT22;31057;48.498;32.260;2023-04-01T03:10:33;7.00;99.90
45319;DHT22;31057;48.498;32.260;2023-04-01T03:12:35;6.90;99.90
45319;DHT22;31057;48.498;32.260;2023-04-01T03:14:37;6.90;99.90
45319;DHT22;31057;48.498;32.260;2023-04-01T03:16:39;6.90;99.90
45319;DHT22;31057;48.498;32.260;2023-04-01T03:18:41;7.00;99.90
45319;DHT22;31057;48.498;32.260;2023-04-01T03:20:42;6.90;99.90
45319;DHT22;31057;48.498;32.260;2023-04-01T03:22:44;7.00;99.90
45319;DHT22;31057;48.498;32.260;2023-04-01T03:24:49;6.90;99.90
45319;DHT22;31057;48.498;32.260;2023-04-01T03:26:51;6.90;99.90
45319;DHT22;31057;48.498;32.260;2023-04-01T03:28:53;7.00;99.90
45319;DHT22;31057;48.498;32.260;2023-04-01T03:30:55;6.90;99.90
45319;DHT22;31057;48.498;32.260;2023-04-01T03:32:58;6.90;99.90
45319;DHT22;31057;48.498;32.260;2023-04-01T03:35:01;7.00;99.90
45319;DHT22;31057;48.498;32.260;2023-04-01T03:37:03;6.90;99.90
45319;DHT22;31057;48.498;32.260;2023-04-01T03:39:05;7.00;99.90
45319;DHT22;31057;48.498;32.260;2023-04-01T03:41:07;7.00;99.90
45319;DHT22;31057;48.498;32.260;2023-04-01T03:43:12;7.00;99.90
45319;DHT22;31057;48.498;32.260;2023-04-01T03:45:14;7.10;99.90
45319;DHT22;31057;48.498;32.260;2023-04-01T03:47:17;7.10;99.90
45319;DHT22;31057;48.498;32.260;2023-04-01T03:49:19;7.10;99.90
45319;DHT22;31057;48.498;32.260;2023-04-01T03:51:20;7.20;99.90
45319;DHT22;31057;48.498;32.260;2023-04-01T03:53:22;7.00;99.90
45319;DHT22;31057;48.498;32.260;2023-04-01T03:55:25;7.10;99.90
45319;DHT22;31057;48.498;32.260;2023-04-01T03:57:27;7.10;99.90
45319;DHT22;31057;48.498;32.260;2023-04-01T03:59:29;7.10;99.90
45319;DHT22;31057;48.498;32.260;2023-04-01T04:01:31;7.10;99.90
45319;DHT22;31057;48.498;32.260;2023-04-01T04:03:33;7.10;99.90
45319;DHT22;31057;48.498;32.260;2023-04-01T04:05:35;7.10;99.90
45319;DHT22;31057;48.498;32.260;2023-04-01T04:07:37;7.10;99.90
45319;DHT22;31057;48.498;32.260;2023-04-01T04:09:39;7.10;99.90
45319;DHT22;31057;48.498;32.260;2023-04-01T04:11:40;7.10;99.90
45319;DHT22;31057;48.498;32.260;2023-04-01T04:13:43;7.10;99.90
45319;DHT22;31057;48.498;32.260;2023-04-01T04:15:45;7.10;99.90
45319;DHT22;31057;48.498;32.260;2023-04-01T04:17:47;7.10;99.90
45319;DHT22;31057;48.498;32.260;2023-04-01T04:19:49;7.10;99.90
45319;DHT22;31057;48.498;32.260;2023-04-01T04:21:51;7.20;99.90
45319;DHT22;31057;48.498;32.260;2023-04-01T04:23:53;7.20;99.90
45319;DHT22;31057;48.498;32.260;2023-04-01T04:25:57;7.20;99.90
45319;DHT22;31057;48.498;32.260;2023-04-01T04:27:59;7.20;99.90
45319;DHT22;31057;48.498;32.260;2023-04-01T04:30:01;7.20;99.90
45319;DHT22;31057;48.498;32.260;2023-04-01T04:32:03;7.20;99.90
45319;DHT22;31057;48.498;32.260;2023-04-01T04:34:06;7.20;99.90
45319;DHT22;31057;48.498;32.260;2023-04-01T04:36:08;7.30;99.90
45319;DHT22;31057;48.498;32.260;2023-04-01T04:38:11;7.30;99.90
45319;DHT22;31057;48.498;32.260;2023-04-01T04:40:12;7.40;99.90
45319;DHT22;31057;48.498;32.260;2023-04-01T04:42:14;7.30;99.90
45319;DHT22;31057;48.498;32.260;2023-04-01T04:44:16;7.50;99.90
45319;DHT22;31057;48.498;32.260;2023-04-01T04:46:18;7.50;99.90
45319;DHT22;31057;48.498;32.260;2023-04-01T04:48:21;7.50;99.90
45319;DHT22;31057;48.498;32.260;2023-04-01T04:50:23;7.60;99.90
45319;DHT22;31057;48.498;32.260;2023-04-01T04:52:25;7.60;99.90
45319;DHT22;31057;48.498;32.260;2023-04-01T04:54:27;7.50;99.90
45319;DHT22;31057;48.498;32.260;2023-04-01T04:56:29;7.50;99.90
45319;DHT22;31057;48.498;32.260;2023-04-01T04:58:32;7.60;99.90
45319;DHT22;31057;48.498;32.260;2023-04-01T05:00:35;7.80;99.90
45319;DHT22;31057;48.498;32.260;2023-04-01T05:02:37;7.90;99.90
45319;DHT22;31057;48.498;32.260;2023-04-01T05:04:39;7.90;99.90
45319;DHT22;31057;48.498;32.260;2023-04-01T05:06:42;7.80;99.90
45319;DHT22;31057;48.498;32.260;2023-04-01T05:08:45;7.60;99.90
45319;DHT22;31057;48.498;32.260;2023-04-01T05:10:47;7.80;99.90
45319;DHT22;31057;48.498;32.260;2023-04-01T05:12:49;7.80;99.90
45319;DHT22;31057;48.498;32.260;2023-04-01T05:14:51;7.80;99.90
45319;DHT22;31057;48.498;32.260;2023-04-01T05:16:53;7.80;99.90
45319;DHT22;31057;48.498;32.260;2023-04-01T05:18:56;7.90;99.90
45319;DHT22;31057;48.498;32.260;2023-04-01T05:20:58;7.80;99.90
45319;DHT22;31057;48.498;32.260;2023-04-01T05:23:00;8.10;99.90
45319;DHT22;31057;48.498;32.260;2023-04-01T05:25:02;8.00;99.90
45319;DHT22;31057;48.498;32.260;2023-04-01T05:27:04;8.20;99.90
45319;DHT22;31057;48.498;32.260;2023-04-01T05:29:06;8.00;99.90
45319;DHT22;31057;48.498;32.260;2023-04-01T05:31:08;8.10;99.90
45319;DHT22;31057;48.498;32.260;2023-04-01T05:33:11;8.10;99.90
45319;DHT22;31057;48.498;32.260;2023-04-01T05:35:14;8.20;99.90
45319;DHT22;31057;48.498;32.260;2023-04-01T05:37:16;8.10;99.90
45319;DHT22;31057;48.498;32.260;2023-04-01T05:39:18;7.90;99.90
45319;DHT22;31057;48.498;32.260;2023-04-01T05:41:20;7.90;99.90
45319;DHT22;31057;48.498;32.260;2023-04-01T05:43:21;7.90;99.90
45319;DHT22;31057;48.498;32.260;2023-04-01T05:45:23;8.10;99.90
45319;DHT22;31057;48.498;32.260;2023-04-01T05:47:25;8.10;99.90
45319;DHT22;31057;48.498;32.260;2023-04-01T05:49:27;8.20;99.90
45319;DHT22;31057;48.498;32.260;2023-04-01T05:51:29;8.10;99.90
45319;DHT22;31057;48.498;32.260;2023-04-01T05:53:31;8.20;99.90
45319;DHT22;31057;48.498;32.260;2023-04-01T05:55:34;8.30;99.90
45319;DHT22;31057;48.498;32.260;2023-04-01T05:57:36;8.50;99.90
45319;DHT22;31057;48.498;32.260;2023-04-01T05:59:38;8.70;99.90
45319;DHT22;31057;48.498;32.260;2023-04-01T06:01:40;8.70;99.90
45319;DHT22;31057;48.498;32.260;2023-04-01T06:03:42;8.80;99.90
45319;DHT22;31057;48.498;32.260;2023-04-01T06:05:45;8.70;99.90
45319;DHT22;31057;48.498;32.260;2023-04-01T06:07:46;8.60;99.90
45319;DHT22;31057;48.498;32.260;2023-04-01T06:09:48;8.60;99.90
45319;DHT22;31057;48.498;32.260;2023-04-01T06:14:19;8.80;99.90
45319;DHT22;31057;48.498;32.260;2023-04-01T06:24:08;9.20;99.90
45319;DHT22;31057;48.498;32.260;2023-04-01T06:26:30;9.40;99.90
45319;DHT22;31057;48.498;32.260;2023-04-01T06:37:19;9.30;99.90
45319;DHT22;31057;48.498;32.260;2023-04-01T06:46:40;9.30;99.90
45319;DHT22;31057;48.498;32.260;2023-04-01T06:51:28;9.50;99.90
45319;DHT22;31057;48.498;32.260;2023-04-01T06:55:59;9.50;99.90
45319;DHT22;31057;48.498;32.260;2023-04-01T06:58:06;9.70;99.90
45319;DHT22;31057;48.498;32.260;2023-04-01T07:00:27;9.50;99.90
45319;DHT22;31057;48.498;32.260;2023-04-01T07:02:54;9.60;99.90
45319;DHT22;31057;48.498;32.260;2023-04-01T07:05:01;9.50;99.90
45319;DHT22;31057;48.498;32.260;2023-04-01T07:07:26;9.60;99.90
45319;DHT22;31057;48.498;32.260;2023-04-01T07:09:41;9.70;99.90
45319;DHT22;31057;48.498;32.260;2023-04-01T07:11:45;9.80;99.90
45319;DHT22;31057;48.498;32.260;2023-04-01T07:13:58;9.60;99.90
45319;DHT22;31057;48.498;32.260;2023-04-01T07:16:12;9.60;99.90
45319;DHT22;31057;48.498;32.260;2023-04-01T07:18:50;9.80;99.90
45319;DHT22;31057;48.498;32.260;2023-04-01T07:20:55;9.90;99.90
45319;DHT22;31057;48.498;32.260;2023-04-01T07:22:59;9.90;99.90
45319;DHT22;31057;48.498;32.260;2023-04-01T07:25:24;9.90;99.90
45319;DHT22;31057;48.498;32.260;2023-04-01T07:27:27;9.70;99.90
45319;DHT22;31057;48.498;32.260;2023-04-01T07:29:29;9.60;99.90
45319;DHT22;31057;48.498;32.260;2023-04-01T07:36:48;10.00;99.90
45319;DHT22;31057;48.498;32.260;2023-04-01T07:46:02;10.70;99.90
45319;DHT22;31057;48.498;32.260;2023-04-01T07:50:32;10.60;99.90
45319;DHT22;31057;48.498;32.260;2023-04-01T07:52:49;10.50;99.90
45319;DHT22;31057;48.498;32.260;2023-04-01T07:55:11;10.60;99.90
45319;DHT22;31057;48.498;32.260;2023-04-01T07:57:23;10.90;99.90
45319;DHT22;31057;48.498;32.260;2023-04-01T07:59:49;11.00;99.90
45319;DHT22;31057;48.498;32.260;2023-04-01T08:03:16;10.80;99.90
45319;DHT22;31057;48.498;32.260;2023-04-01T08:04:51;10.80;99.90
45319;DHT22;31057;48.498;32.260;2023-04-01T08:07:22;10.80;99.90
45319;DHT22;31057;48.498;32.260;2023-04-01T08:12:00;11.10;99.90
45319;DHT22;31057;48.498;32.260;2023-04-01T08:14:08;11.20;99.90
45319;DHT22;31057;48.498;32.260;2023-04-01T08:16:27;11.10;99.90
45319;DHT22;31057;48.498;32.260;2023-04-01T08:22:50;11.70;99.90
45319;DHT22;31057;48.498;32.260;2023-04-01T08:24:55;11.80;99.90
45319;DHT22;31057;48.498;32.260;2023-04-01T08:27:03;11.70;99.90
45319;DHT22;31057;48.498;32.260;2023-04-01T08:29:11;11.80;99.90
45319;DHT22;31057;48.498;32.260;2023-04-01T08:31:45;12.30;99.90
45319;DHT22;31057;48.498;32.260;2023-04-01T08:33:52;12.50;99.90
45319;DHT22;31057;48.498;32.260;2023-04-01T08:38:31;12.80;99.90
45319;DHT22;31057;48.498;32.260;2023-04-01T08:40:57;12.80;99.90
45319;DHT22;31057;48.498;32.260;2023-04-01T08:45:41;12.90;99.90
45319;DHT22;31057;48.498;32.260;2023-04-01T08:52:35;13.20;99.90
45319;DHT22;31057;48.498;32.260;2023-04-01T08:55:09;13.10;99.90
45319;DHT22;31057;48.498;32.260;2023-04-01T09:19:53;14.10;99.90
45319;DHT22;31057;48.498;32.260;2023-04-01T09:22:47;13.80;99.90
45319;DHT22;31057;48.498;32.260;2023-04-01T09:27:27;13.60;99.90
45319;DHT22;31057;48.498;32.260;2023-04-01T09:41:44;13.80;99.90
45319;DHT22;31057;48.498;32.260;2023-04-01T09:57:58;13.90;99.90
45319;DHT22;31057;48.498;32.260;2023-04-01T10:12:31;13.70;99.90
45319;DHT22;31057;48.498;32.260;2023-04-01T10:14:56;13.50;99.90
45319;DHT22;31057;48.498;32.260;2023-04-01T10:20:44;13.80;99.90
45319;DHT22;31057;48.498;32.260;2023-04-01T10:31:35;13.80;99.90
45319;DHT22;31057;48.498;32.260;2023-04-01T10:34:00;14.00;99.90
45319;DHT22;31057;48.498;32.260;2023-04-01T10:36:21;14.00;99.90
45319;DHT22;31057;48.498;32.260;2023-04-01T10:55:37;13.80;99.90
45319;DHT22;31057;48.498;32.260;2023-04-01T11:00:11;14.40;99.90
45319;DHT22;31057;48.498;32.260;2023-04-01T11:04:47;14.50;99.90
45319;DHT22;31057;48.498;32.260;2023-04-01T11:14:16;13.70;99.90
45319;DHT22;31057;48.498;32.260;2023-04-01T11:19:11;13.90;99.90
45319;DHT22;31057;48.498;32.260;2023-04-01T11:26:21;13.60;99.90
45319;DHT22;31057;48.498;32.260;2023-04-01T11:33:17;13.50;99.90
45319;DHT22;31057;48.498;32.260;2023-04-01T11:35:46;13.50;99.90
45319;DHT22;31057;48.498;32.260;2023-04-01T11:42:41;13.30;99.90
45319;DHT22;31057;48.498;32.260;2023-04-01T11:45:11;13.10;99.90
45319;DHT22;31057;48.498;32.260;2023-04-01T11:54:34;13.30;99.90
45319;DHT22;31057;48.498;32.260;2023-04-01T12:05:58;13.50;99.90
45319;DHT22;31057;48.498;32.260;2023-04-01T12:08:20;13.70;99.90
45319;DHT22;31057;48.498;32.260;2023-04-01T12:10:38;13.90;99.90
45319;DHT22;31057;48.498;32.260;2023-04-01T12:13:04;14.50;99.90
45319;DHT22;31057;48.498;32.260;2023-04-01T12:15:20;14.90;99.90
45319;DHT22;31057;48.498;32.260;2023-04-01T12:19:45;14.90;99.90
45319;DHT22;31057;48.498;32.260;2023-04-01T12:22:42;14.30;99.90
45319;DHT22;31057;48.498;32.260;2023-04-01T12:26:59;14.00;99.90
45319;DHT22;31057;48.498;32.260;2023-04-01T12:48:31;13.40;99.90
45319;DHT22;31057;48.498;32.260;2023-04-01T12:55:39;13.10;99.90
45319;DHT22;31057;48.498;32.260;2023-04-01T13:05:12;13.00;99.90
45319;DHT22;31057;48.498;32.260;2023-04-01T13:09:28;13.60;99.90
45319;DHT22;31057;48.498;32.260;2023-04-01T13:23:33;13.00;99.90
45319;DHT22;31057;48.498;32.260;2023-04-01T13:26:18;12.80;99.90
45319;DHT22;31057;48.498;32.260;2023-04-01T13:28:23;12.90;99.90
45319;DHT22;31057;48.498;32.260;2023-04-01T13:30:32;13.30;99.90
45319;DHT22;31057;48.498;32.260;2023-04-01T13:35:20;13.10;99.90
45319;DHT22;31057;48.498;32.260;2023-04-01T13:42:40;12.70;99.90
45319;DHT22;31057;48.498;32.260;2023-04-01T13:45:01;12.40;99.90
45319;DHT22;31057;48.498;32.260;2023-04-01T13:51:53;12.20;99.90
45319;DHT22;31057;48.498;32.260;2023-04-01T13:56:48;12.50;99.90
45319;DHT22;31057;48.498;32.260;2023-04-01T14:05:52;12.10;99.90
45319;DHT22;31057;48.498;32.260;2023-04-01T14:15:20;11.30;99.90
45319;DHT22;31057;48.498;32.260;2023-04-01T14:22:16;11.70;99.90
45319;DHT22;31057;48.498;32.260;2023-04-01T14:24:29;11.80;99.90
45319;DHT22;31057;48.498;32.260;2023-04-01T14:35:58;11.90;99.90
45319;DHT22;31057;48.498;32.260;2023-04-01T14:40:56;11.80;99.90
45319;DHT22;31057;48.498;32.260;2023-04-01T14:48:30;12.00;99.90
45319;DHT22;31057;48.498;32.260;2023-04-01T14:50:49;11.90;99.90
45319;DHT22;31057;48.498;32.260;2023-04-01T14:55:01;11.80;99.90
45319;DHT22;31057;48.498;32.260;2023-04-01T14:57:14;11.90;99.90
45319;DHT22;31057;48.498;32.260;2023-04-01T15:01:35;11.90;99.90
45319;DHT22;31057;48.498;32.260;2023-04-01T15:06:49;11.90;99.90
45319;DHT22;31057;48.498;32.260;2023-04-01T15:18:17;11.70;99.90
45319;DHT22;31057;48.498;32.260;2023-04-01T15:23:11;11.70;99.90
45319;DHT22;31057;48.498;32.260;2023-04-01T15:25:37;11.70;99.90
45319;DHT22;31057;48.498;32.260;2023-04-01T15:32:49;11.70;99.90
45319;DHT22;31057;48.498;32.260;2023-04-01T15:46:54;11.40;99.90
45319;DHT22;31057;48.498;32.260;2023-04-01T15:57:04;11.20;99.90
45319;DHT22;31057;48.498;32.260;2023-04-01T15:59:20;11.20;99.90
45319;DHT22;31057;48.498;32.260;2023-04-01T16:06:09;11.10;99.90
45319;DHT22;31057;48.498;32.260;2023-04-01T16:15:13;11.00;99.90
45319;DHT22;31057;48.498;32.260;2023-04-01T16:19:37;11.10;99.90
45319;DHT22;31057;48.498;32.260;2023-04-01T16:22:14;11.00;99.90
45319;DHT22;31057;48.498;32.260;2023-04-01T16:24:34;11.00;99.90
45319;DHT22;31057;48.498;32.260;2023-04-01T16:26:47;11.00;99.90
45319;DHT22;31057;48.498;32.260;2023-04-01T16:29:03;10.90;99.90
45319;DHT22;31057;48.498;32.260;2023-04-01T16:31:15;10.80;99.90
45319;DHT22;31057;48.498;32.260;2023-04-01T16:33:44;10.80;99.90
45319;DHT22;31057;48.498;32.260;2023-04-01T16:36:05;10.80;99.90
45319;DHT22;31057;48.498;32.260;2023-04-01T16:40:42;10.60;99.90
45319;DHT22;31057;48.498;32.260;2023-04-01T16:45:16;10.60;99.90
45319;DHT22;31057;48.498;32.260;2023-04-01T16:47:30;10.50;99.90
45319;DHT22;31057;48.498;32.260;2023-04-01T16:54:30;10.50;99.90
45319;DHT22;31057;48.498;32.260;2023-04-01T16:56:41;10.50;99.90
45319;DHT22;31057;48.498;32.260;2023-04-01T16:59:06;10.50;99.90
45319;DHT22;31057;48.498;32.260;2023-04-01T17:01:13;10.40;99.90
45319;DHT22;31057;48.498;32.260;2023-04-01T17:03:26;10.40;99.90
45319;DHT22;31057;48.498;32.260;2023-04-01T17:15:47;10.40;99.90
45319;DHT22;31057;48.498;32.260;2023-04-01T17:18:23;10.30;99.90
45319;DHT22;31057;48.498;32.260;2023-04-01T17:21:16;10.30;99.90
45319;DHT22;31057;48.498;32.260;2023-04-01T17:23:38;10.30;99.90
45319;DHT22;31057;48.498;32.260;2023-04-01T17:26:04;10.30;99.90
45319;DHT22;31057;48.498;32.260;2023-04-01T17:34:01;10.30;99.90
45319;DHT22;31057;48.498;32.260;2023-04-01T17:45:53;10.20;99.90
45319;DHT22;31057;48.498;32.260;2023-04-01T17:53:44;10.10;99.90
45319;DHT22;31057;48.498;32.260;2023-04-01T17:56:22;10.00;99.90
45319;DHT22;31057;48.498;32.260;2023-04-01T17:58:44;9.90;99.90
45319;DHT22;31057;48.498;32.260;2023-04-01T18:06:09;9.80;99.90
45319;DHT22;31057;48.498;32.260;2023-04-01T18:10:49;9.70;99.90
45319;DHT22;31057;48.498;32.260;2023-04-01T18:13:15;9.70;99.90
45319;DHT22;31057;48.498;32.260;2023-04-01T18:18:17;9.70;99.90
45319;DHT22;31057;48.498;32.260;2023-04-01T18:23:02;9.70;99.90
45319;DHT22;31057;48.498;32.260;2023-04-01T18:25:27;9.70;99.90
45319;DHT22;31057;48.498;32.260;2023-04-01T18:28:16;9.60;99.90
45319;DHT22;31057;48.498;32.260;2023-04-01T18:30:39;9.60;99.90
45319;DHT22;31057;48.498;32.260;2023-04-01T18:33:09;9.60;99.90
45319;DHT22;31057;48.498;32.260;2023-04-01T18:37:41;9.50;99.90
45319;DHT22;31057;48.498;32.260;2023-04-01T18:44:50;9.50;99.90
45319;DHT22;31057;48.498;32.260;2023-04-01T18:53:50;9.40;99.90
45319;DHT22;31057;48.498;32.260;2023-04-01T18:55:59;9.40;99.90
45319;DHT22;31057;48.498;32.260;2023-04-01T18:58:36;9.30;99.90
45319;DHT22;31057;48.498;32.260;2023-04-01T19:03:23;9.30;99.90
45319;DHT22;31057;48.498;32.260;2023-04-01T19:05:34;9.30;99.90
45319;DHT22;31057;48.498;32.260;2023-04-01T19:07:47;9.20;99.90
45319;DHT22;31057;48.498;32.260;2023-04-01T19:09:50;9.20;99.90
45319;DHT22;31057;48.498;32.260;2023-04-01T19:14:45;9.20;99.90
45319;DHT22;31057;48.498;32.260;2023-04-01T19:17:15;9.20;99.90
45319;DHT22;31057;48.498;32.260;2023-04-01T19:25:59;9.30;99.90
45319;DHT22;31057;48.498;32.260;2023-04-01T19:28:28;9.30;99.90
45319;DHT22;31057;48.498;32.260;2023-04-01T19:35:23;9.30;99.90
45319;DHT22;31057;48.498;32.260;2023-04-01T19:37:40;9.30;99.90
45319;DHT22;31057;48.498;32.260;2023-04-01T19:44:28;9.20;99.90
45319;DHT22;31057;48.498;32.260;2023-04-01T19:46:43;9.20;99.90
45319;DHT22;31057;48.498;32.260;2023-04-01T19:51:11;9.30;99.90
45319;DHT22;31057;48.498;32.260;2023-04-01T20:04:59;9.20;99.90
45319;DHT22;31057;48.498;32.260;2023-04-01T20:07:07;9.20;99.90
45319;DHT22;31057;48.498;32.260;2023-04-01T20:11:30;9.20;99.90
45319;DHT22;31057;48.498;32.260;2023-04-01T20:13:41;9.20;99.90
45319;DHT22;31057;48.498;32.260;2023-04-01T20:16:03;9.20;99.90
45319;DHT22;31057;48.498;32.260;2023-04-01T20:18:25;9.20;99.90
45319;DHT22;31057;48.498;32.260;2023-04-01T20:20:30;9.10;99.90
45319;DHT22;31057;48.498;32.260;2023-04-01T20:24:47;9.20;99.90
45319;DHT22;31057;48.498;32.260;2023-04-01T20:26:59;9.20;99.90
45319;DHT22;31057;48.498;32.260;2023-04-01T20:31:43;9.20;99.90
45319;DHT22;31057;48.498;32.260;2023-04-01T20:34:19;9.20;99.90
45319;DHT22;31057;48.498;32.260;2023-04-01T20:38:58;9.20;99.90
45319;DHT22;31057;48.498;32.260;2023-04-01T20:41:20;9.10;99.90
45319;DHT22;31057;48.498;32.260;2023-04-01T20:43:33;9.10;99.90
45319;DHT22;31057;48.498;32.260;2023-04-01T21:13:47;9.00;99.90
45319;DHT22;31057;48.498;32.260;2023-04-01T21:27:50;9.20;99.90
45319;DHT22;31057;48.498;32.260;2023-04-01T21:35:09;9.10;99.90
45319;DHT22;31057;48.498;32.260;2023-04-01T21:45:26;9.00;99.90
45319;DHT22;31057;48.498;32.260;2023-04-01T21:57:05;9.00;99.90
45319;DHT22;31057;48.498;32.260;2023-04-01T22:08:46;9.10;99.90
45319;DHT22;31057;48.498;32.260;2023-04-01T22:17:50;9.10;99.90
45319;DHT22;31057;48.498;32.260;2023-04-01T22:20:14;9.00;99.90
45319;DHT22;31057;48.498;32.260;2023-04-01T22:22:22;9.00;99.90
45319;DHT22;31057;48.498;32.260;2023-04-01T22:26:42;9.00;99.90
45319;DHT22;31057;48.498;32.260;2023-04-01T22:30:59;9.00;99.90
45319;DHT22;31057;48.498;32.260;2023-04-01T22:33:07;9.00;99.90
45319;DHT22;31057;48.498;32.260;2023-04-01T22:35:32;9.00;99.90
45319;DHT22;31057;48.498;32.260;2023-04-01T22:47:00;9.00;99.90
45319;DHT22;31057;48.498;32.260;2023-04-01T22:49:06;9.00;99.90
45319;DHT22;31057;48.498;32.260;2023-04-01T22:51:40;9.00;99.90
45319;DHT22;31057;48.498;32.260;2023-04-01T22:54:08;9.00;99.90
45319;DHT22;31057;48.498;32.260;2023-04-01T22:56:21;9.00;99.90
45319;DHT22;31057;48.498;32.260;2023-04-01T22:58:50;9.00;99.90
45319;DHT22;31057;48.498;32.260;2023-04-01T23:00:59;8.90;99.90
45319;DHT22;31057;48.498;32.260;2023-04-01T23:03:33;9.00;99.90
45319;DHT22;31057;48.498;32.260;2023-04-01T23:05:40;9.00;99.90
45319;DHT22;31057;48.498;32.260;2023-04-01T23:10:15;8.90;99.90
45319;DHT22;31057;48.498;32.260;2023-04-01T23:12:19;8.90;99.90
45319;DHT22;31057;48.498;32.260;2023-04-01T23:16:33;8.90;99.90
45319;DHT22;31057;48.498;32.260;2023-04-01T23:23:38;8.80;99.90
45319;DHT22;31057;48.498;32.260;2023-04-01T23:32:39;8.70;99.90
45319;DHT22;31057;48.498;32.260;2023-04-01T23:34:49;8.60;99.90
45319;DHT22;31057;48.498;32.260;2023-04-01T23:37:22;8.50;99.90
45319;DHT22;31057;48.498;32.260;2023-04-01T23:39:32;8.60;99.90
45319;DHT22;31057;48.498;32.260;2023-04-01T23:41:35;8.50;99.90
45319;DHT22;31057;48.498;32.260;2023-04-01T23:43:40;8.50;99.90
45319;DHT22;31057;48.498;32.260;2023-04-01T23:45:43;8.50;99.90